createdAt,value
2019-02-06T00:00:56.643Z,2.10
2019-02-06T00:03:26.370Z,2.10
2019-02-06T00:05:55.830Z,2.10
2019-02-06T00:08:25.109Z,2.10
2019-02-06T00:10:54.585Z,2.10
2019-02-06T00:13:23.866Z,2.10
2019-02-06T00:15:53.730Z,2.00
2019-02-06T00:18:23.149Z,2.00
2019-02-06T00:20:52.532Z,2.00
2019-02-06T00:23:21.790Z,2.00
2019-02-06T00:25:51.364Z,2.00
2019-02-06T00:28:20.734Z,2.00
2019-02-06T00:30:50.418Z,2.00
2019-02-06T00:33:19.696Z,2.00
2019-02-06T00:36:08.062Z,2.10
2019-02-06T00:38:37.334Z,2.10
2019-02-06T00:41:06.898Z,2.10
2019-02-06T00:43:36.178Z,2.10
2019-02-06T00:46:05.773Z,2.10
2019-02-06T00:48:35.037Z,2.20
2019-02-06T00:51:04.371Z,2.20
2019-02-06T00:53:33.680Z,2.30
2019-02-06T00:56:03.333Z,2.40
2019-02-06T00:58:51.698Z,2.50
2019-02-06T01:01:21.188Z,2.60
2019-02-06T01:03:50.464Z,2.70
2019-02-06T01:06:19.835Z,2.90
2019-02-06T01:08:49.104Z,3.00
2019-02-06T01:11:18.474Z,3.10
2019-02-06T01:13:47.742Z,3.20
2019-02-06T01:16:17.042Z,3.20
2019-02-06T01:18:46.309Z,3.30
2019-02-06T01:21:15.594Z,3.30
2019-02-06T01:23:45.149Z,3.40
2019-02-06T01:26:14.418Z,3.40
2019-02-06T01:28:43.757Z,3.50
2019-02-06T01:31:17.510Z,3.50
2019-02-06T01:33:46.863Z,3.60
2019-02-06T01:36:16.149Z,3.60
2019-02-06T01:38:45.716Z,3.70
2019-02-06T01:41:15.062Z,3.70
2019-02-06T01:43:44.346Z,3.80
2019-02-06T01:46:13.678Z,3.80
2019-02-06T01:48:43.053Z,3.80
2019-02-06T01:51:12.303Z,3.90
2019-02-06T01:53:42.068Z,3.90
2019-02-06T01:56:11.423Z,3.90
2019-02-06T01:58:40.701Z,3.90
2019-02-06T02:01:10.281Z,4.00
2019-02-06T02:03:39.660Z,4.00
2019-02-06T02:06:08.959Z,4.00
2019-02-06T02:08:42.125Z,3.90
2019-02-06T02:11:11.448Z,3.90
2019-02-06T02:13:40.820Z,3.90
2019-02-06T02:16:10.085Z,4.00
2019-02-06T02:18:39.394Z,4.00
2019-02-06T02:21:08.805Z,3.90
2019-02-06T02:23:38.669Z,4.00
2019-02-06T02:26:07.926Z,4.00
2019-02-06T02:28:37.285Z,4.10
2019-02-06T02:31:06.845Z,4.10
2019-02-06T02:33:36.169Z,4.10
2019-02-06T02:36:15.168Z,4.10
2019-02-06T02:38:36.397Z,4.20
2019-02-06T02:41:05.780Z,4.20
2019-02-06T02:43:35.059Z,4.20
2019-02-06T02:46:04.604Z,4.20
2019-02-06T02:48:33.987Z,4.20
2019-02-06T02:51:03.336Z,4.20
2019-02-06T02:53:32.933Z,4.20
2019-02-06T02:56:02.264Z,4.20
2019-02-06T02:58:31.568Z,4.20
2019-02-06T03:01:19.866Z,4.10
2019-02-06T03:04:02.294Z,4.10
2019-02-06T03:06:31.600Z,4.10
2019-02-06T03:09:00.873Z,4.10
2019-02-06T03:11:30.133Z,4.10
2019-02-06T03:13:59.413Z,4.20
2019-02-06T03:16:29.179Z,4.20
2019-02-06T03:18:58.442Z,4.20
2019-02-06T03:21:27.716Z,4.10
2019-02-06T03:23:56.993Z,4.10
2019-02-06T03:26:26.269Z,4.00
2019-02-06T03:28:55.541Z,4.10
2019-02-06T03:31:24.811Z,4.10
2019-02-06T03:33:54.115Z,4.10
2019-02-06T03:36:23.371Z,4.10
2019-02-06T03:38:52.667Z,4.10
2019-02-06T03:41:21.931Z,4.00
2019-02-06T03:43:51.219Z,4.10
2019-02-06T03:46:20.480Z,4.10
2019-02-06T03:48:49.765Z,4.00
2019-02-06T03:51:19.021Z,3.90
2019-02-06T03:53:48.377Z,3.90
2019-02-06T03:56:17.623Z,3.80
2019-02-06T03:58:47.000Z,3.70
2019-02-06T04:01:16.588Z,3.80
2019-02-06T04:03:46.157Z,3.70
2019-02-06T04:06:15.469Z,3.80
2019-02-06T04:08:44.731Z,3.60
2019-02-06T04:11:14.020Z,3.60
2019-02-06T04:13:43.276Z,3.50
2019-02-06T04:16:12.598Z,3.50
2019-02-06T04:18:42.173Z,3.40
2019-02-06T04:21:11.634Z,3.30
2019-02-06T04:23:40.930Z,3.20
2019-02-06T04:26:10.205Z,3.10
2019-02-06T04:28:39.560Z,3.00
2019-02-06T04:31:08.813Z,3.00
2019-02-06T04:33:38.279Z,2.90
2019-02-06T04:36:07.548Z,2.90
2019-02-06T04:38:36.797Z,2.80
2019-02-06T04:41:06.162Z,2.80
2019-02-06T04:43:35.437Z,2.70
2019-02-06T04:46:04.721Z,2.70
2019-02-06T04:48:34.364Z,2.60
2019-02-06T04:51:03.740Z,2.60
2019-02-06T04:53:32.997Z,2.50
2019-02-06T04:56:02.306Z,2.50
2019-02-06T04:58:31.573Z,2.50
2019-02-06T05:01:00.933Z,2.40
2019-02-06T05:03:30.205Z,2.40
2019-02-06T05:05:59.494Z,2.40
2019-02-06T05:08:28.802Z,2.40
2019-02-06T05:10:58.066Z,2.30
2019-02-06T05:13:27.371Z,2.30
2019-02-06T05:15:56.706Z,2.30
2019-02-06T05:18:26.907Z,2.20
2019-02-06T05:20:56.198Z,2.20
2019-02-06T05:23:25.460Z,2.20
2019-02-06T05:25:55.901Z,2.20
2019-02-06T05:28:25.252Z,2.20
2019-02-06T05:30:54.569Z,2.20
2019-02-06T05:33:23.976Z,2.20
2019-02-06T05:35:53.245Z,2.10
2019-02-06T05:38:22.500Z,2.10
2019-02-06T05:40:51.790Z,2.00
2019-02-06T05:43:21.057Z,2.00
2019-02-06T05:45:50.351Z,1.90
2019-02-06T05:48:19.723Z,1.90
2019-02-06T05:50:49.334Z,1.90
2019-02-06T05:53:18.597Z,1.80
2019-02-06T05:55:48.040Z,1.80
2019-02-06T05:58:17.336Z,1.80
2019-02-06T06:00:48.779Z,1.70
2019-02-06T06:03:18.240Z,1.70
2019-02-06T06:05:47.696Z,1.60
2019-02-06T06:08:16.977Z,1.70
2019-02-06T06:10:46.336Z,1.70
2019-02-06T06:13:18.438Z,1.60
2019-02-06T06:15:46.533Z,1.60
2019-02-06T06:18:15.799Z,1.60
2019-02-06T06:20:45.085Z,1.60
2019-02-06T06:23:14.349Z,1.60
2019-02-06T06:25:43.615Z,1.50
2019-02-06T06:28:12.918Z,1.50
2019-02-06T06:30:42.231Z,1.50
2019-02-06T06:33:11.594Z,1.40
2019-02-06T06:35:40.938Z,1.40
2019-02-06T06:38:10.646Z,1.50
2019-02-06T06:40:40.011Z,1.50
2019-02-06T06:43:09.322Z,1.60
2019-02-06T06:45:38.577Z,1.60
2019-02-06T06:48:07.859Z,1.60
2019-02-06T06:50:37.126Z,1.60
2019-02-06T06:53:06.816Z,1.60
2019-02-06T06:55:36.188Z,1.70
2019-02-06T06:58:05.725Z,1.70
2019-02-06T07:00:35.232Z,1.70
2019-02-06T07:03:04.513Z,1.70
2019-02-06T07:05:33.801Z,1.70
2019-02-06T07:08:11.176Z,1.80
2019-02-06T07:10:34.619Z,1.90
2019-02-06T07:13:03.892Z,2.00
2019-02-06T07:15:34.794Z,2.00
2019-02-06T07:18:10.852Z,2.30
2019-02-06T07:20:40.321Z,2.40
2019-02-06T07:23:09.773Z,2.40
2019-02-06T07:25:39.245Z,2.50
2019-02-06T07:28:08.782Z,2.50
2019-02-06T07:30:38.226Z,2.50
2019-02-06T07:33:07.524Z,2.70
2019-02-06T07:35:36.944Z,2.90
2019-02-06T07:38:06.366Z,2.80
2019-02-06T07:40:35.678Z,2.80
2019-02-06T07:43:04.943Z,2.80
2019-02-06T07:45:34.317Z,2.90
2019-02-06T07:48:03.575Z,2.80
2019-02-06T07:50:33.993Z,2.80
2019-02-06T07:53:03.416Z,2.80
2019-02-06T07:55:32.780Z,2.90
2019-02-06T07:58:02.166Z,2.80
2019-02-06T08:00:31.635Z,2.80
2019-02-06T08:03:01.204Z,2.80
2019-02-06T08:05:30.677Z,2.80
2019-02-06T08:08:00.308Z,2.80
2019-02-06T08:10:31.507Z,2.80
2019-02-06T08:13:02.810Z,2.90
2019-02-06T08:15:32.389Z,3.00
2019-02-06T08:18:01.665Z,3.00
2019-02-06T08:20:31.503Z,3.10
2019-02-06T08:23:00.966Z,3.20
2019-02-06T08:25:30.224Z,3.10
2019-02-06T08:27:59.695Z,3.20
2019-02-06T08:30:37.155Z,3.20
2019-02-06T08:33:06.701Z,3.20
2019-02-06T08:35:36.277Z,3.30
2019-02-06T08:38:07.233Z,3.20
2019-02-06T08:40:36.798Z,3.30
2019-02-06T08:43:06.076Z,3.50
2019-02-06T08:45:35.465Z,3.50
2019-02-06T08:48:05.189Z,3.50
2019-02-06T08:50:34.515Z,3.70
2019-02-06T08:53:03.791Z,3.80
2019-02-06T08:55:33.249Z,4.00
2019-02-06T08:58:02.749Z,4.00
2019-02-06T09:00:34.560Z,4.10
2019-02-06T09:03:05.666Z,4.20
2019-02-06T09:05:35.026Z,4.30
2019-02-06T09:08:04.769Z,4.20
2019-02-06T09:10:34.106Z,4.30
2019-02-06T09:13:03.575Z,4.40
2019-02-06T09:15:32.840Z,4.70
2019-02-06T09:18:02.131Z,5.10
2019-02-06T09:20:31.549Z,5.50
2019-02-06T09:23:00.924Z,5.60
2019-02-06T09:25:30.509Z,5.50
2019-02-06T09:27:59.992Z,5.60
2019-02-06T09:30:30.936Z,5.40
2019-02-06T09:33:00.529Z,5.30
2019-02-06T09:35:29.905Z,5.20
2019-02-06T09:37:59.390Z,5.20
2019-02-06T09:40:29.897Z,5.40
2019-02-06T09:42:59.254Z,5.40
2019-02-06T09:45:28.755Z,5.40
2019-02-06T09:47:58.137Z,5.40
2019-02-06T09:50:29.980Z,5.30
2019-02-06T09:52:59.242Z,5.20
2019-02-06T09:55:28.636Z,5.30
2019-02-06T09:57:57.931Z,5.20
2019-02-06T10:00:29.449Z,5.00
2019-02-06T10:02:59.038Z,5.00
2019-02-06T10:05:28.350Z,5.20
2019-02-06T10:07:57.860Z,5.30
2019-02-06T10:10:27.542Z,5.50
2019-02-06T10:12:57.054Z,5.50
2019-02-06T10:15:28.320Z,5.60
2019-02-06T10:17:59.953Z,5.50
2019-02-06T10:20:33.539Z,5.60
2019-02-06T10:23:03.306Z,5.60
2019-02-06T10:25:32.681Z,5.50
2019-02-06T10:28:01.950Z,5.50
2019-02-06T10:30:33.682Z,5.60
2019-02-06T10:33:03.184Z,5.60
2019-02-06T10:35:32.483Z,5.60
2019-02-06T10:38:01.819Z,5.70
2019-02-06T10:40:31.407Z,5.70
2019-02-06T10:43:00.978Z,5.70
2019-02-06T10:45:30.259Z,5.80
2019-02-06T10:47:59.717Z,6.00
2019-02-06T10:50:31.774Z,6.20
2019-02-06T10:53:01.213Z,6.40
2019-02-06T10:55:30.658Z,6.70
2019-02-06T10:58:00.076Z,6.80
2019-02-06T11:00:35.266Z,6.70
2019-02-06T11:03:05.002Z,6.70
2019-02-06T11:05:34.375Z,6.80
2019-02-06T11:08:03.636Z,6.80
2019-02-06T11:10:32.956Z,6.50
2019-02-06T11:13:02.506Z,6.70
2019-02-06T11:15:32.273Z,6.70
2019-02-06T11:18:01.630Z,6.60
2019-02-06T11:20:31.832Z,6.60
2019-02-06T11:23:01.124Z,6.50
2019-02-06T11:25:30.429Z,6.60
2019-02-06T11:27:59.691Z,6.60
2019-02-06T11:30:31.089Z,6.60
2019-02-06T11:33:00.376Z,6.60
2019-02-06T11:35:29.688Z,6.50
2019-02-06T11:37:59.434Z,6.60
2019-02-06T11:40:30.740Z,6.60
2019-02-06T11:42:59.981Z,6.70
2019-02-06T11:45:31.715Z,6.70
2019-02-06T11:48:00.988Z,6.80
2019-02-06T11:50:37.334Z,6.80
2019-02-06T11:53:08.135Z,7.10
2019-02-06T11:55:37.436Z,7.60
2019-02-06T11:58:07.418Z,7.80
2019-02-06T12:00:48.308Z,8.10
2019-02-06T12:03:16.187Z,8.40
2019-02-06T12:05:45.556Z,8.80
2019-02-06T12:08:15.033Z,8.50
2019-02-06T12:10:44.541Z,8.60
2019-02-06T12:13:13.934Z,8.60
2019-02-06T12:15:43.423Z,8.50
2019-02-06T12:18:12.679Z,8.50
2019-02-06T12:20:41.977Z,8.60
2019-02-06T12:23:11.247Z,8.90
2019-02-06T12:25:40.520Z,9.40
2019-02-06T12:28:10.016Z,9.20
2019-02-06T12:30:39.443Z,9.10
2019-02-06T12:33:08.752Z,9.00
2019-02-06T12:35:38.026Z,9.30
2019-02-06T12:38:07.614Z,9.50
2019-02-06T12:40:36.910Z,9.50
2019-02-06T12:43:07.113Z,9.80
2019-02-06T12:45:38.095Z,10.10
2019-02-06T12:48:08.123Z,9.90
2019-02-06T12:50:38.039Z,9.50
2019-02-06T12:53:07.498Z,9.60
2019-02-06T12:55:38.120Z,9.50
2019-02-06T12:58:08.321Z,9.30
2019-02-06T13:00:39.648Z,9.40
2019-02-06T13:03:09.108Z,9.50
2019-02-06T13:05:38.528Z,9.60
2019-02-06T13:08:08.472Z,9.40
2019-02-06T13:10:37.807Z,9.20
2019-02-06T13:13:07.316Z,9.10
2019-02-06T13:15:36.997Z,9.20
2019-02-06T13:18:06.481Z,9.20
2019-02-06T13:20:35.961Z,9.30
2019-02-06T13:23:05.745Z,9.30
2019-02-06T13:25:34.993Z,9.20
2019-02-06T13:28:04.993Z,9.30
2019-02-06T13:30:36.610Z,9.20
2019-02-06T13:33:07.196Z,9.40
2019-02-06T13:35:36.760Z,9.30
2019-02-06T13:38:06.408Z,9.20
2019-02-06T13:40:45.282Z,9.00
2019-02-06T13:43:07.048Z,8.90
2019-02-06T13:45:42.202Z,8.80
2019-02-06T13:48:11.579Z,8.70
2019-02-06T13:50:41.503Z,8.80
2019-02-06T13:53:10.863Z,8.60
2019-02-06T13:55:40.177Z,8.70
2019-02-06T13:58:19.689Z,8.80
2019-02-06T14:00:41.149Z,8.80
2019-02-06T14:03:10.433Z,8.70
2019-02-06T14:05:41.524Z,8.60
2019-02-06T14:08:12.850Z,8.70
2019-02-06T14:10:42.217Z,8.70
2019-02-06T14:13:11.588Z,8.70
2019-02-06T14:15:42.617Z,8.60
2019-02-06T14:18:12.383Z,8.60
2019-02-06T14:20:41.689Z,8.80
2019-02-06T14:23:13.896Z,8.80
2019-02-06T14:26:00.645Z,8.70
2019-02-06T14:29:01.517Z,8.90
2019-02-06T14:31:56.158Z,8.70
2019-02-06T14:34:58.309Z,8.50
2019-02-06T14:37:58.600Z,8.50
2019-02-06T14:41:08.569Z,8.50
2019-02-06T14:44:06.973Z,8.30
2019-02-06T14:47:16.177Z,8.00
2019-02-06T14:50:05.550Z,7.90
2019-02-06T14:53:07.319Z,7.80
2019-02-06T14:56:23.981Z,7.70
2019-02-06T14:59:30.787Z,7.60
2019-02-06T15:02:56.791Z,7.60
2019-02-06T15:06:10.376Z,7.50
2019-02-06T15:09:17.858Z,7.50
2019-02-06T15:12:19.127Z,7.50
2019-02-06T15:15:15.566Z,7.40
2019-02-06T15:18:17.757Z,7.30
2019-02-06T15:21:10.706Z,7.20
2019-02-06T15:24:22.011Z,7.20
2019-02-06T15:27:33.868Z,7.20
2019-02-06T15:30:20.215Z,7.10
2019-02-06T15:33:30.928Z,7.10
2019-02-06T15:36:31.250Z,7.10
2019-02-06T15:39:44.234Z,7.10
2019-02-06T15:42:49.786Z,7.10
2019-02-06T15:45:35.217Z,7.10
2019-02-06T15:48:28.863Z,7.00
2019-02-06T15:51:51.292Z,7.00
2019-02-06T15:54:48.545Z,7.00
2019-02-06T15:58:11.684Z,7.00
2019-02-06T16:01:14.721Z,6.90
2019-02-06T16:04:22.812Z,6.90
2019-02-06T16:07:48.575Z,6.90
2019-02-06T16:10:52.115Z,6.90
2019-02-06T16:13:58.131Z,6.90
2019-02-06T16:17:03.581Z,6.80
2019-02-06T16:19:47.144Z,6.80
2019-02-06T16:22:38.782Z,6.80
2019-02-06T16:25:42.893Z,6.80
2019-02-06T16:28:55.621Z,6.80
2019-02-06T16:32:07.762Z,6.80
2019-02-06T16:35:33.034Z,6.70
2019-02-06T16:38:15.445Z,6.70
2019-02-06T16:41:28.288Z,6.70
2019-02-06T16:44:38.943Z,6.70
2019-02-06T16:47:52.222Z,6.70
2019-02-06T16:50:42.562Z,6.70
2019-02-06T16:53:51.642Z,6.60
2019-02-06T16:56:33.624Z,6.70
2019-02-06T16:59:20.101Z,6.70
2019-02-06T17:02:26.535Z,6.70
2019-02-06T17:05:51.536Z,6.70
2019-02-06T17:09:23.176Z,6.70
2019-02-06T17:12:22.464Z,6.70
2019-02-06T17:15:20.638Z,6.70
2019-02-06T17:18:32.997Z,6.70
2019-02-06T17:21:43.322Z,6.70
2019-02-06T17:24:36.391Z,6.80
2019-02-06T17:27:47.544Z,6.80
2019-02-06T17:31:02.447Z,6.70
2019-02-06T17:34:00.212Z,6.70
2019-02-06T17:36:55.843Z,6.70
2019-02-06T17:39:45.393Z,6.80
2019-02-06T17:42:54.646Z,6.80
2019-02-06T17:45:58.266Z,6.80
2019-02-06T17:48:56.272Z,6.90
2019-02-06T17:52:09.531Z,6.90
2019-02-06T17:55:15.428Z,6.90
2019-02-06T17:57:45.178Z,6.90
2019-02-06T18:00:29.604Z,6.90
2019-02-06T18:02:59.852Z,6.90
2019-02-06T18:05:29.850Z,6.90
2019-02-06T18:07:59.221Z,6.90
2019-02-06T18:10:28.498Z,6.90
2019-02-06T18:12:57.777Z,6.90
2019-02-06T18:15:27.354Z,6.90
2019-02-06T18:17:59.569Z,6.90
2019-02-06T18:20:28.945Z,7.00
2019-02-06T18:23:06.825Z,7.00
2019-02-06T18:25:36.072Z,7.00
2019-02-06T18:28:05.839Z,7.10
2019-02-06T18:30:35.310Z,7.10
2019-02-06T18:33:06.141Z,7.20
2019-02-06T18:35:35.615Z,7.20
2019-02-06T18:38:07.212Z,7.20
2019-02-06T18:40:36.715Z,7.30
2019-02-06T18:43:06.372Z,7.20
2019-02-06T18:45:35.652Z,7.30
2019-02-06T18:48:08.585Z,7.30
2019-02-06T18:50:38.844Z,7.30
2019-02-06T18:53:08.493Z,7.30
2019-02-06T18:55:38.343Z,7.30
2019-02-06T18:58:08.625Z,7.20
2019-02-06T19:00:38.582Z,7.30
2019-02-06T19:03:12.354Z,7.20
2019-02-06T19:05:42.740Z,7.30
2019-02-06T19:08:12.331Z,7.20
2019-02-06T19:10:41.773Z,7.20
2019-02-06T19:13:11.492Z,7.20
2019-02-06T19:15:41.092Z,7.20
2019-02-06T19:18:11.719Z,7.20
2019-02-06T19:20:41.272Z,7.20
2019-02-06T19:23:10.818Z,7.10
2019-02-06T19:25:40.483Z,7.20
2019-02-06T19:28:10.179Z,7.20
2019-02-06T19:30:40.375Z,7.20
2019-02-06T19:33:10.430Z,7.30
2019-02-06T19:35:39.926Z,7.20
2019-02-06T19:38:12.393Z,7.30
2019-02-06T19:40:44.310Z,7.30
2019-02-06T19:43:14.945Z,7.20
2019-02-06T19:45:44.703Z,7.30
2019-02-06T19:48:17.686Z,7.30
2019-02-06T19:50:45.524Z,7.30
2019-02-06T19:53:15.052Z,7.30
2019-02-06T19:55:44.494Z,7.30
2019-02-06T19:58:14.134Z,7.30
2019-02-06T20:00:43.949Z,7.30
2019-02-06T20:03:13.670Z,7.40
2019-02-06T20:05:43.265Z,7.50
2019-02-06T20:08:14.307Z,7.50
2019-02-06T20:10:45.563Z,7.50
2019-02-06T20:13:15.018Z,7.50
2019-02-06T20:15:44.480Z,7.50
2019-02-06T20:18:14.538Z,7.50
2019-02-06T20:20:45.166Z,7.50
2019-02-06T20:23:14.877Z,7.60
2019-02-06T20:25:44.520Z,7.60
2019-02-06T20:28:13.972Z,7.50
2019-02-06T20:30:43.315Z,7.50
2019-02-06T20:33:12.820Z,7.60
2019-02-06T20:35:42.165Z,7.60
2019-02-06T20:38:11.584Z,7.60
2019-02-06T20:40:41.152Z,7.60
2019-02-06T20:43:21.415Z,7.50
2019-02-06T20:45:41.960Z,7.60
2019-02-06T20:48:13.241Z,7.60
2019-02-06T20:50:42.818Z,7.70
2019-02-06T20:53:12.262Z,7.60
2019-02-06T20:55:41.763Z,7.70
2019-02-06T20:58:12.757Z,7.70
2019-02-06T21:00:42.409Z,7.70
2019-02-06T21:03:11.963Z,7.70
2019-02-06T21:05:41.639Z,7.70
2019-02-06T21:08:11.184Z,7.70
2019-02-06T21:10:40.563Z,7.70
2019-02-06T21:13:10.086Z,7.70
2019-02-06T21:15:39.471Z,7.70
2019-02-06T21:18:08.964Z,7.70
2019-02-06T21:20:38.626Z,7.70
2019-02-06T21:23:08.119Z,7.80
2019-02-06T21:25:37.612Z,7.70
2019-02-06T21:28:07.111Z,7.60
2019-02-06T21:30:37.151Z,7.60
2019-02-06T21:33:06.872Z,7.70
2019-02-06T21:35:36.350Z,7.70
2019-02-06T21:38:06.065Z,7.70
2019-02-06T21:40:36.067Z,7.60
2019-02-06T21:43:06.205Z,7.60
2019-02-06T21:45:35.540Z,7.50
2019-02-06T21:48:05.651Z,7.50
2019-02-06T21:50:34.909Z,7.60
2019-02-06T21:53:04.228Z,7.50
2019-02-06T21:55:33.485Z,7.50
2019-02-06T21:58:03.018Z,7.50
2019-02-06T22:00:37.803Z,7.50
2019-02-06T22:03:07.323Z,7.50
2019-02-06T22:05:37.954Z,7.60
2019-02-06T22:08:07.427Z,7.60
2019-02-06T22:10:36.780Z,7.60
2019-02-06T22:13:06.537Z,7.60
2019-02-06T22:15:35.895Z,7.40
2019-02-06T22:18:05.145Z,7.40
2019-02-06T22:20:34.520Z,7.50
2019-02-06T22:23:03.797Z,7.30
2019-02-06T22:25:33.107Z,7.30
2019-02-06T22:28:02.360Z,7.30
2019-02-06T22:30:31.630Z,7.20
2019-02-06T22:33:00.903Z,7.20
2019-02-06T22:35:30.163Z,7.20
2019-02-06T22:37:59.595Z,7.30
2019-02-06T22:40:28.875Z,7.30
2019-02-06T22:42:58.156Z,7.30
2019-02-06T22:45:28.558Z,7.30
2019-02-06T22:47:57.959Z,7.30
2019-02-06T22:50:28.472Z,7.30
2019-02-06T22:52:57.923Z,7.30
2019-02-06T22:55:27.402Z,7.20
2019-02-06T22:57:56.683Z,7.20
2019-02-06T23:01:03.934Z,7.20
2019-02-06T23:03:36.102Z,7.20
2019-02-06T23:06:06.670Z,7.20
2019-02-06T23:08:36.042Z,7.10
2019-02-06T23:11:05.695Z,7.10
2019-02-06T23:13:34.997Z,7.10
2019-02-06T23:16:04.990Z,7.10
2019-02-06T23:18:35.259Z,7.10
2019-02-06T23:21:06.282Z,7.10
2019-02-06T23:23:35.902Z,7.10
2019-02-06T23:26:05.455Z,7.10
2019-02-06T23:28:34.741Z,7.10
2019-02-06T23:31:04.049Z,7.10
2019-02-06T23:33:33.345Z,7.10
2019-02-06T23:36:02.598Z,7.10
2019-02-06T23:38:32.184Z,7.10
2019-02-06T23:41:01.461Z,7.10
2019-02-06T23:43:30.757Z,7.10
2019-02-06T23:46:00.001Z,7.00
2019-02-06T23:48:29.279Z,7.00
2019-02-06T23:50:58.639Z,7.00
2019-02-06T23:53:28.233Z,6.90
2019-02-06T23:55:57.481Z,6.90
2019-02-06T23:58:26.780Z,6.80
